In Rescue
 
Open Full Screen Window  High Contrast Mode
Wind Gusting 00 knots
09
January 18, 2019 7:29 AM CST
Weather Information
Wind Direction
  320 °
Wind Speed
  09 kt (10 mph)
Wind Gust
  00 kt (0 mph)
Altimeter
30.23 in
Visibility
10 SM
Temperature
-22° C
-7° F
Dewpoint
-27° C
-16° F
Humidity
64%
1hr Rain Fall
00.00 in.
24hr Rain Fall
00.00 in.
Sky Condition
Clear
VFR

METAR KCOQ 181329Z AUTO 32009KT 10SM CLR M22/M27 A3023 RMK AO2

FAA Disclaimer: The data displayed is for advisory purposes only and is not to be used for flight planning or operations.